Time;durP1;ratioP1;P1;durP2;ratioP2;P2;SDS_P1;SDS_P2;PMS_P1;PMS_P2;Temp;Humidity;BMP_temperature;BMP_pressure;BME280_temperature;BME280_humidity;BME280_pressure;Samples;Min_cycle;Max_cycle;Signal;HPM_P1;HPM_P2
2023/12/07 00:00:09;;;;;;;;;40.75;26.00;;;;;-146.67;70.08;76630.69;5101525;27;61910;-72
2023/12/07 00:02:35;;;;;;;;;36.50;28.50;;;;;-146.67;70.58;76632.69;5102056;27;61865;-71
2023/12/07 00:05:00;;;;;;;;;35.50;30.25;;;;;-146.67;70.75;76630.69;5101807;27;61895;-72
2023/12/07 00:07:25;;;;;;;;;35.00;24.00;;;;;-146.67;70.88;76636.69;5101115;27;61864;-71
2023/12/07 00:09:51;;;;;;;;;32.75;27.50;;;;;-146.67;71.01;76640.69;5101498;27;61729;-72
2023/12/07 00:12:17;;;;;;;;;33.00;25.50;;;;;-146.67;71.26;76644.66;5101804;27;61922;-71
2023/12/07 00:14:42;;;;;;;;;29.75;28.25;;;;;-146.67;71.01;76640.69;5100766;27;61995;-71
2023/12/07 00:17:07;;;;;;;;;28.75;25.75;;;;;-146.67;70.90;76638.69;5100923;27;61864;-72
2023/12/07 00:19:33;;;;;;;;;37.75;27.50;;;;;-146.67;70.97;76632.69;5101251;27;61667;-71
2023/12/07 00:21:58;;;;;;;;;35.25;29.50;;;;;-146.67;71.09;76632.69;5099850;27;61955;-71
2023/12/07 00:24:23;;;;;;;;;34.75;27.25;;;;;-146.67;71.21;76636.69;5101570;27;61822;-71
2023/12/07 00:26:49;;;;;;;;;31.75;27.25;;;;;-146.67;71.51;76630.69;5103675;27;61877;-72
2023/12/07 00:29:15;;;;;;;;;39.50;27.00;;;;;-146.67;71.47;76632.69;5104630;27;61971;-71
2023/12/07 00:31:40;;;;;;;;;37.00;31.50;;;;;-146.67;71.57;76632.69;5105485;27;61962;-71
2023/12/07 00:34:05;;;;;;;;;32.00;26.50;;;;;-146.67;71.40;76642.66;5104844;27;61790;-71
2023/12/07 00:36:31;;;;;;;;;38.75;29.25;;;;;-146.67;71.50;76640.69;5102845;27;64789;-72
2023/12/07 00:38:56;;;;;;;;;44.25;28.00;;;;;-146.67;71.06;76646.66;5104600;27;61964;-71
2023/12/07 00:41:21;;;;;;;;;25.50;22.25;;;;;-146.67;71.39;76640.69;5098994;27;61843;-71
2023/12/07 00:43:47;;;;;;;;;36.25;27.75;;;;;-146.67;71.20;76652.66;5084701;27;61881;-71
2023/12/07 00:46:13;;;;;;;;;36.75;31.00;;;;;-146.67;71.17;76660.66;5083764;28;62703;-72
2023/12/07 00:48:38;;;;;;;;;20.00;19.00;;;;;-146.67;71.44;76648.66;5084611;27;61896;-71
2023/12/07 00:51:06;;;;;;;;;34.00;24.75;;;;;-146.67;71.21;76656.66;5103400;27;63115;-71
2023/12/07 00:53:31;;;;;;;;;27.25;22.75;;;;;-146.67;71.16;76662.66;5103296;27;62137;-72
2023/12/07 00:55:57;;;;;;;;;29.00;25.25;;;;;-146.67;71.10;76660.66;5102704;27;63982;-71
2023/12/07 00:58:22;;;;;;;;;41.50;27.50;;;;;-146.67;70.71;76668.63;5102293;27;61949;-72
2023/12/07 01:00:48;;;;;;;;;41.00;30.25;;;;;-146.67;71.20;76668.63;5102267;27;61868;-71
2023/12/07 01:03:14;;;;;;;;;21.00;17.50;;;;;-146.67;71.36;76662.66;5098368;27;62044;-71
2023/12/07 01:05:39;;;;;;;;;27.50;24.50;;;;;-146.67;70.90;76660.66;5081479;27;64857;-71
2023/12/07 01:08:04;;;;;;;;;36.75;24.50;;;;;-146.67;71.20;76662.66;5102904;27;62100;-71
2023/12/07 01:10:30;;;;;;;;;29.50;24.00;;;;;-146.67;71.43;76668.63;5103632;27;61709;-71
2023/12/07 01:12:55;;;;;;;;;25.75;22.50;;;;;-146.67;70.63;76670.63;5104266;27;61732;-71
2023/12/07 01:15:20;;;;;;;;;33.00;27.25;;;;;-146.67;71.49;76674.63;5103062;27;62144;-71
2023/12/07 01:17:46;;;;;;;;;34.75;25.75;;;;;-146.67;71.42;76680.63;5109486;27;61984;-71
2023/12/07 01:20:12;;;;;;;;;31.75;25.50;;;;;-146.67;71.21;76678.63;5124339;27;61955;-72
2023/12/07 01:22:41;;;;;;;;;31.50;25.25;;;;;-146.67;71.12;76672.63;5124506;27;61825;-71
2023/12/07 01:25:07;;;;;;;;;39.75;30.50;;;;;-146.67;71.16;76668.63;5124285;27;61863;-71
2023/12/07 01:27:32;;;;;;;;;28.50;25.25;;;;;-146.67;71.25;76672.63;5124837;27;61837;-71
2023/12/07 01:29:57;;;;;;;;;29.75;22.50;;;;;-146.67;70.97;76674.63;5124952;27;62031;-71
2023/12/07 01:32:23;;;;;;;;;29.25;22.75;;;;;-146.67;70.88;76668.63;5125081;27;62153;-71
2023/12/07 01:34:48;;;;;;;;;23.75;20.25;;;;;-146.67;70.73;76668.63;5109925;27;63578;-71
2023/12/07 01:37:14;;;;;;;;;24.25;19.25;;;;;-146.67;70.55;76676.63;5103352;27;61957;-71
2023/12/07 01:39:41;;;;;;;;;25.25;21.75;;;;;-146.67;70.73;76674.63;5102892;27;61761;-71
2023/12/07 01:42:08;;;;;;;;;37.50;21.75;;;;;-146.67;70.60;76666.66;5102873;27;62098;-71
2023/12/07 01:44:34;;;;;;;;;28.25;21.00;;;;;-146.67;70.86;76678.63;5103297;27;61947;-71
2023/12/07 01:46:59;;;;;;;;;30.50;22.25;;;;;-146.67;70.80;76680.63;5102570;27;62154;-71
2023/12/07 01:49:25;;;;;;;;;24.75;14.25;;;;;-146.67;70.63;76684.63;5096966;27;61888;-71
2023/12/07 01:51:51;;;;;;;;;25.75;21.25;;;;;-146.67;70.77;76690.63;5082935;27;62078;-71
2023/12/07 01:54:17;;;;;;;;;27.75;19.50;;;;;-146.67;71.17;76696.59;5082627;27;62955;-71
2023/12/07 01:56:42;;;;;;;;;27.00;25.00;;;;;-146.67;71.38;76686.63;5083492;27;61914;-71
2023/12/07 01:59:08;;;;;;;;;24.50;18.00;;;;;-146.67;70.66;76688.63;5083370;27;61845;-71
2023/12/07 02:01:33;;;;;;;;;23.50;20.75;;;;;-146.67;70.63;76694.59;5089339;27;61926;-71
2023/12/07 02:03:59;;;;;;;;;26.25;17.00;;;;;-146.67;70.90;76704.59;5103117;27;63194;-71
2023/12/07 02:06:26;;;;;;;;;21.50;19.25;;;;;-146.67;71.04;76704.59;5104378;27;61753;-71
2023/12/07 02:08:51;;;;;;;;;29.50;19.25;;;;;-146.67;71.14;76700.59;5124472;27;61916;-71
2023/12/07 02:11:18;;;;;;;;;30.25;21.25;;;;;-146.67;71.06;76686.63;5124528;27;61737;-71
2023/12/07 02:13:44;;;;;;;;;21.25;16.25;;;;;-146.67;70.89;76688.63;5123502;27;61906;-71
2023/12/07 02:16:40;;;;;;;;;28.25;21.00;;;;;-146.67;70.75;76678.63;5124467;27;62295;-71
2023/12/07 02:19:24;;;;;;;;;28.25;24.50;;;;;-146.67;70.82;76672.63;5122561;27;61987;-71
2023/12/07 02:22:16;;;;;;;;;24.50;19.50;;;;;-146.67;70.92;76672.63;5122805;27;62153;-71
2023/12/07 02:24:50;;;;;;;;;22.75;19.75;;;;;-146.67;70.90;76668.63;5123178;27;62047;-71
2023/12/07 02:27:16;;;;;;;;;30.25;23.00;;;;;-146.67;70.99;76662.66;5122773;27;61961;-71
2023/12/07 02:29:41;;;;;;;;;21.00;5.00;;;;;-146.67;71.35;76662.66;5122298;27;62105;-71
2023/12/07 02:32:07;;;;;;;;;33.50;22.75;;;;;-146.67;71.21;76656.66;5124238;27;62042;-71
2023/12/07 02:34:32;;;;;;;;;28.75;24.00;;;;;-146.67;70.92;76650.66;5122677;27;62028;-71
2023/12/07 02:37:00;;;;;;;;;33.75;19.50;;;;;-146.67;70.68;76650.66;5123557;27;61918;-71
2023/12/07 02:39:25;;;;;;;;;29.25;20.50;;;;;-146.67;70.93;76642.66;5123920;27;62227;-71
2023/12/07 02:41:53;;;;;;;;;19.25;18.00;;;;;-146.67;70.68;76644.66;5122356;27;61764;-71
2023/12/07 02:44:19;;;;;;;;;32.25;21.25;;;;;-146.67;70.42;76642.66;5123234;27;62106;-71
2023/12/07 02:46:45;;;;;;;;;23.25;22.25;;;;;-146.67;70.50;76650.66;5131224;27;61412;-71
2023/12/07 02:49:10;;;;;;;;;20.75;18.00;;;;;-146.67;70.65;76650.66;5118362;27;62065;-71
2023/12/07 02:51:35;;;;;;;;;34.75;19.25;;;;;-146.67;70.74;76654.66;5102593;27;61777;-71
2023/12/07 02:54:01;;;;;;;;;30.25;21.00;;;;;-146.67;70.42;76656.66;5102083;27;62044;-72
2023/12/07 02:56:26;;;;;;;;;25.75;20.75;;;;;-146.67;70.65;76658.66;5103249;27;61806;-72
2023/12/07 02:58:51;;;;;;;;;25.50;20.50;;;;;-146.67;70.94;76664.66;5102698;27;61710;-72
2023/12/07 03:01:17;;;;;;;;;24.50;21.50;;;;;-146.67;70.65;76660.66;5103174;27;61745;-72
2023/12/07 03:03:42;;;;;;;;;24.25;17.00;;;;;-146.67;70.59;76658.66;5100171;27;65008;-71
2023/12/07 03:06:08;;;;;;;;;26.00;17.50;;;;;-146.67;70.77;76648.66;5100940;27;61757;-72
2023/12/07 03:08:33;;;;;;;;;13.50;10.75;;;;;-146.67;70.45;76626.69;5102931;27;62462;-71
2023/12/07 03:10:58;;;;;;;;;25.75;18.00;;;;;-146.67;70.03;76608.72;5102836;27;62067;-72
2023/12/07 03:13:24;;;;;;;;;19.25;16.25;;;;;-146.67;70.11;76606.72;5100853;27;63490;-71
2023/12/07 03:15:49;;;;;;;;;28.25;20.00;;;;;-146.67;70.03;76612.72;5102418;27;62152;-71
2023/12/07 03:18:14;;;;;;;;;17.00;15.00;;;;;-146.67;70.41;76604.72;5102521;27;61777;-71
2023/12/07 03:20:40;;;;;;;;;27.50;20.50;;;;;-146.67;70.64;76604.72;5102179;27;61750;-71
2023/12/07 03:23:05;;;;;;;;;17.00;11.50;;;;;-146.67;70.82;76598.72;5101863;27;62610;-71
2023/12/07 03:25:31;;;;;;;;;25.75;20.00;;;;;-146.67;70.78;76604.72;5100813;27;61860;-71
2023/12/07 03:27:56;;;;;;;;;19.50;16.75;;;;;-146.67;70.76;76608.72;5101133;27;61963;-72
2023/12/07 03:30:21;;;;;;;;;20.00;17.25;;;;;-146.67;70.66;76616.69;5102705;27;61960;-71
2023/12/07 03:32:47;;;;;;;;;26.75;19.75;;;;;-146.67;70.95;76632.69;5101522;27;62646;-71
2023/12/07 03:35:12;;;;;;;;;25.75;19.00;;;;;-146.67;70.86;76634.69;5100876;27;61902;-71
2023/12/07 03:37:37;;;;;;;;;23.50;18.75;;;;;-146.67;70.51;76630.69;5100970;27;62070;-72
2023/12/07 03:40:05;;;;;;;;;21.50;19.75;;;;;-146.67;70.54;76642.66;5102490;27;61802;-71
2023/12/07 03:42:31;;;;;;;;;20.50;18.25;;;;;-146.67;71.37;76654.66;5101663;27;63027;-71
2023/12/07 03:44:56;;;;;;;;;29.50;18.25;;;;;-146.67;71.26;76646.66;5101997;27;61714;-71
2023/12/07 03:47:21;;;;;;;;;25.50;19.75;;;;;-146.67;70.82;76648.66;5102022;27;61668;-71
2023/12/07 03:49:47;;;;;;;;;25.75;21.25;;;;;-146.67;71.37;76644.66;5091582;27;61769;-72
2023/12/07 03:52:12;;;;;;;;;29.75;17.75;;;;;-146.67;71.35;76638.69;5093862;27;61904;-71
2023/12/07 03:54:37;;;;;;;;;22.25;18.75;;;;;-146.67;71.34;76626.69;5102035;27;61860;-71
2023/12/07 03:57:04;;;;;;;;;25.25;20.75;;;;;-146.67;71.15;76616.69;5100411;27;61944;-71
2023/12/07 03:59:29;;;;;;;;;26.75;19.50;;;;;-146.67;71.12;76618.69;5118252;27;61797;-71
2023/12/07 04:01:54;;;;;;;;;26.00;21.00;;;;;-146.67;70.88;76614.72;5103703;27;61868;-71
2023/12/07 04:04:20;;;;;;;;;24.50;19.25;;;;;-146.67;70.63;76606.72;5105794;27;61822;-71
2023/12/07 04:06:45;;;;;;;;;23.75;18.25;;;;;-146.67;70.51;76628.69;5105338;27;61858;-71
2023/12/07 04:09:10;;;;;;;;;19.50;16.75;;;;;-146.67;71.26;76626.69;5105803;27;61980;-71
2023/12/07 04:11:36;;;;;;;;;20.25;16.25;;;;;-146.67;71.03;76634.69;5103648;27;64752;-72
2023/12/07 04:14:01;;;;;;;;;22.00;18.50;;;;;-146.67;70.75;76648.66;5105240;27;61785;-72
2023/12/07 04:16:27;;;;;;;;;26.50;16.75;;;;;-146.67;70.14;76640.69;5105381;27;61936;-72
2023/12/07 04:18:52;;;;;;;;;23.75;13.25;;;;;-146.67;70.91;76640.69;5105011;27;61872;-71
2023/12/07 04:21:17;;;;;;;;;24.50;18.00;;;;;-146.67;70.95;76632.69;5102795;27;63631;-72
2023/12/07 04:23:43;;;;;;;;;18.00;15.75;;;;;-146.67;70.54;76628.69;5105682;27;61992;-72
2023/12/07 04:26:08;;;;;;;;;21.25;17.25;;;;;-146.67;70.76;76616.69;5103643;27;61862;-71
2023/12/07 04:28:34;;;;;;;;;24.75;17.00;;;;;-146.67;70.57;76620.69;5105371;27;61916;-71
2023/12/07 04:30:59;;;;;;;;;17.75;13.75;;;;;-146.67;70.37;76612.72;5104092;27;61944;-71
2023/12/07 04:33:24;;;;;;;;;21.75;14.25;;;;;-146.67;70.54;76604.72;5105167;27;61922;-71
2023/12/07 04:35:50;;;;;;;;;22.50;15.00;;;;;-146.67;70.47;76606.72;5105166;27;61734;-71
2023/12/07 04:38:15;;;;;;;;;24.25;17.50;;;;;-146.67;69.81;76596.72;5104894;27;62055;-72
2023/12/07 04:40:41;;;;;;;;;24.00;15.25;;;;;-146.67;69.98;76604.72;5104501;27;62106;-71
2023/12/07 04:43:07;;;;;;;;;27.00;21.25;;;;;-146.67;70.09;76600.72;5101649;27;61888;-71
2023/12/07 04:45:33;;;;;;;;;22.25;20.75;;;;;-146.67;69.79;76588.75;5084364;27;61707;-71
2023/12/07 04:48:00;;;;;;;;;27.00;18.00;;;;;-146.67;70.22;76582.75;5084710;27;61900;-71
2023/12/07 04:50:25;;;;;;;;;23.25;18.25;;;;;-146.67;69.77;76584.75;5083349;28;62849;-71
2023/12/07 04:52:50;;;;;;;;;15.75;15.75;;;;;-146.67;70.14;76582.75;5102389;27;61925;-71
2023/12/07 04:55:16;;;;;;;;;20.50;15.25;;;;;-146.67;70.08;76572.75;5103261;27;62171;-71
2023/12/07 04:57:41;;;;;;;;;18.75;15.50;;;;;-146.67;69.58;76568.75;5103514;27;61924;-71
2023/12/07 05:00:09;;;;;;;;;19.50;19.50;;;;;-146.67;69.57;76574.75;5101816;27;62814;-72
2023/12/07 05:02:34;;;;;;;;;13.50;13.25;;;;;-146.67;69.98;76560.78;5103203;27;62006;-72
2023/12/07 05:04:59;;;;;;;;;23.50;18.25;;;;;-146.67;69.69;76560.78;5102443;27;61926;-71
2023/12/07 05:07:25;;;;;;;;;22.75;14.75;;;;;-146.67;69.62;76562.78;5103710;27;62187;-71
2023/12/07 05:09:50;;;;;;;;;20.25;14.25;;;;;-146.67;69.14;76556.78;5102451;27;63611;-71
2023/12/07 05:12:16;;;;;;;;;15.75;13.00;;;;;-146.67;69.93;76560.78;5103493;27;61867;-71
2023/12/07 05:14:42;;;;;;;;;16.75;14.75;;;;;-146.67;70.20;76550.78;5103993;27;61989;-71
2023/12/07 05:17:07;;;;;;;;;20.00;17.25;;;;;-146.67;70.06;76560.78;5104327;27;61819;-71
2023/12/07 05:19:32;;;;;;;;;14.75;10.75;;;;;-146.67;69.69;76566.75;5103338;27;61816;-71
2023/12/07 05:21:58;;;;;;;;;21.00;18.25;;;;;-146.67;69.97;76560.78;5102676;27;61969;-71
2023/12/07 05:24:23;;;;;;;;;18.25;14.00;;;;;-146.67;69.86;76552.78;5104006;27;62577;-72
2023/12/07 05:26:48;;;;;;;;;21.75;14.00;;;;;-146.67;69.71;76564.78;5103197;27;61891;-71
2023/12/07 05:29:14;;;;;;;;;23.25;14.00;;;;;-146.67;70.00;76546.78;5103071;27;62180;-71
2023/12/07 05:31:40;;;;;;;;;14.25;14.25;;;;;-146.67;69.72;76570.75;5104449;27;61867;-71
2023/12/07 05:34:06;;;;;;;;;19.50;14.50;;;;;-146.67;69.81;76576.75;5103874;27;62223;-71
2023/12/07 05:36:31;;;;;;;;;16.50;14.50;;;;;-146.67;69.76;76576.75;5104020;27;61854;-71
2023/12/07 05:38:57;;;;;;;;;27.25;18.25;;;;;-146.67;69.38;76570.75;5103599;27;61845;-71
2023/12/07 05:41:22;;;;;;;;;17.00;14.75;;;;;-146.67;69.73;76568.75;5115117;27;61840;-71
2023/12/07 05:43:48;;;;;;;;;20.50;14.00;;;;;-146.67;69.38;76552.78;5124573;27;62196;-71
2023/12/07 05:46:14;;;;;;;;;18.00;16.25;;;;;-146.67;69.59;76550.78;5123583;27;61777;-71
2023/12/07 05:48:39;;;;;;;;;17.00;14.50;;;;;-146.67;69.56;76554.78;5122663;27;64031;-71
2023/12/07 05:51:05;;;;;;;;;20.25;16.75;;;;;-146.67;68.94;76558.78;5120385;27;62118;-71
2023/12/07 05:53:33;;;;;;;;;18.25;17.50;;;;;-146.67;69.46;76550.78;5102265;27;61749;-71
2023/12/07 05:55:59;;;;;;;;;17.00;12.75;;;;;-146.67;69.30;76540.81;5103962;27;61899;-71
2023/12/07 05:58:24;;;;;;;;;18.00;15.50;;;;;-146.67;69.48;76540.81;5101527;27;64036;-71
2023/12/07 06:00:50;;;;;;;;;23.75;18.00;;;;;-146.67;69.35;76534.81;5102325;27;61800;-71
2023/12/07 06:03:15;;;;;;;;;23.25;17.50;;;;;-146.67;67.63;76482.88;5103594;27;61772;-71
2023/12/07 06:05:41;;;;;;;;;18.25;17.00;;;;;-146.67;69.06;76528.81;5102217;27;61895;-71
2023/12/07 06:08:07;;;;;;;;;19.25;16.75;;;;;-146.67;69.24;76530.81;5103472;27;62940;-71
2023/12/07 06:10:32;;;;;;;;;22.50;15.25;;;;;-146.67;69.05;76520.81;5122248;27;61938;-71
2023/12/07 06:13:00;;;;;;;;;15.25;14.00;;;;;-146.67;68.91;76528.81;5122663;27;61879;-72
2023/12/07 06:15:26;;;;;;;;;16.75;13.75;;;;;-146.67;69.14;76528.81;5122586;27;61906;-73
2023/12/07 06:17:51;;;;;;;;;15.00;12.25;;;;;-146.67;69.46;76522.81;5123579;27;62930;-72
2023/12/07 06:20:17;;;;;;;;;23.50;18.25;;;;;-146.67;69.30;76512.84;5122172;27;61840;-73
2023/12/07 06:22:42;;;;;;;;;16.75;13.75;;;;;-146.67;69.22;76514.84;5123133;27;62124;-72
2023/12/07 06:25:11;;;;;;;;;18.00;13.50;;;;;-146.67;69.15;76496.84;5123160;27;61834;-72
2023/12/07 06:27:37;;;;;;;;;25.50;16.75;;;;;-146.67;68.70;76488.88;5114853;27;62820;-72
2023/12/07 06:30:05;;;;;;;;;21.25;17.75;;;;;-146.67;68.40;76494.84;5103074;27;61876;-72
2023/12/07 06:32:31;;;;;;;;;24.75;19.00;;;;;-146.67;68.37;76492.88;5101661;27;61947;-72
2023/12/07 06:34:56;;;;;;;;;21.75;17.00;;;;;-146.67;68.33;76500.84;5103393;27;61730;-72
2023/12/07 06:37:22;;;;;;;;;19.50;17.00;;;;;-146.67;67.95;76504.84;5100960;27;63489;-72
2023/12/07 06:39:48;;;;;;;;;18.25;14.00;;;;;-146.67;68.36;76506.84;5100962;27;61827;-72
2023/12/07 06:42:14;;;;;;;;;23.50;10.25;;;;;-146.67;68.59;76494.84;5101553;27;62192;-72
2023/12/07 06:44:39;;;;;;;;;23.25;14.25;;;;;-146.67;67.99;76488.88;5102675;27;62109;-73
2023/12/07 06:47:05;;;;;;;;;27.00;18.25;;;;;-146.67;67.59;76498.84;5101779;27;61858;-71
2023/12/07 06:49:31;;;;;;;;;23.25;19.75;;;;;-146.67;67.96;76500.84;5101774;27;62422;-71
2023/12/07 06:51:56;;;;;;;;;19.50;17.50;;;;;-146.67;67.74;76494.84;5100742;27;62204;-71
2023/12/07 06:54:22;;;;;;;;;19.50;19.50;;;;;-146.67;67.29;76478.88;5101917;27;62103;-71
2023/12/07 06:56:47;;;;;;;;;23.50;19.50;;;;;-146.67;67.87;76502.84;5100864;27;62034;-71
2023/12/07 06:59:17;;;;;;;;;18.00;16.00;;;;;-146.67;67.39;76508.84;5100863;27;61908;-71
2023/12/07 07:01:42;;;;;;;;;22.00;15.50;;;;;-146.67;67.91;76512.84;5101060;27;61769;-71
2023/12/07 07:04:08;;;;;;;;;16.75;13.75;;;;;-146.67;67.80;76494.84;5100606;27;61835;-71
2023/12/07 07:06:34;;;;;;;;;26.00;21.00;;;;;-146.67;68.01;76492.88;5100686;27;61860;-71
2023/12/07 07:08:59;;;;;;;;;34.25;24.00;;;;;-146.67;67.75;76482.88;5100369;27;61936;-71
2023/12/07 07:11:25;;;;;;;;;17.75;16.50;;;;;-146.67;67.77;76488.88;5102207;27;61840;-71
2023/12/07 07:13:50;;;;;;;;;22.00;16.00;;;;;-146.67;67.45;76470.88;5102300;27;62019;-71
2023/12/07 07:16:15;;;;;;;;;19.25;14.75;;;;;-146.67;67.07;76468.88;5100220;27;63660;-71
2023/12/07 07:18:41;;;;;;;;;25.50;16.50;;;;;-146.67;66.77;76476.88;5101915;27;62259;-71
2023/12/07 07:21:07;;;;;;;;;19.00;15.50;;;;;-146.67;66.90;76484.88;5100404;27;61841;-71
2023/12/07 07:23:34;;;;;;;;;17.00;13.50;;;;;-146.67;67.24;76502.84;5100209;27;62204;-72
2023/12/07 07:26:00;;;;;;;;;9.75;9.75;;;;;-146.67;67.02;76490.88;5113866;27;62359;-72
2023/12/07 07:28:25;;;;;;;;;16.00;14.00;;;;;-146.67;67.52;76502.84;5123135;27;61834;-72
2023/12/07 07:30:51;;;;;;;;;27.50;14.00;;;;;-146.67;67.22;76500.84;5107901;27;61758;-72
2023/12/07 07:33:16;;;;;;;;;24.25;17.00;;;;;-146.67;67.18;76514.84;5102408;27;61777;-72
2023/12/07 07:35:42;;;;;;;;;18.50;14.00;;;;;-146.67;67.24;76502.84;5114339;27;63739;-70
2023/12/07 07:38:15;;;;;;;;;17.50;16.50;;;;;-146.67;67.26;76496.84;5105524;27;62001;-72
2023/12/07 07:40:48;;;;;;;;;19.50;18.00;;;;;-146.67;67.19;76500.84;5105755;27;61937;-72
2023/12/07 07:43:14;;;;;;;;;14.25;13.50;;;;;-146.67;67.01;76484.88;5104183;27;61931;-72
2023/12/07 07:45:39;;;;;;;;;18.25;17.25;;;;;-146.67;66.88;76494.84;5103530;27;64820;-72
2023/12/07 07:48:05;;;;;;;;;19.25;14.75;;;;;-146.67;66.88;76468.88;5098183;27;61982;-72
2023/12/07 07:50:30;;;;;;;;;23.00;21.25;;;;;-146.67;67.17;76482.88;5084857;27;61714;-73
2023/12/07 07:52:56;;;;;;;;;24.00;17.25;;;;;-146.67;66.55;76480.88;5102834;27;61963;-73
2023/12/07 07:55:21;;;;;;;;;12.75;9.25;;;;;-146.67;66.63;76472.88;5104836;27;62826;-78
2023/12/07 07:57:46;;;;;;;;;17.50;16.25;;;;;-146.67;66.83;76488.88;5105627;27;61778;-72
2023/12/07 08:00:13;;;;;;;;;26.75;16.75;;;;;-146.67;66.91;76470.88;5104534;27;62029;-70
2023/12/07 08:02:38;;;;;;;;;18.25;16.75;;;;;-146.67;66.72;76470.88;5105777;27;61837;-70
2023/12/07 08:05:04;;;;;;;;;21.75;16.00;;;;;-146.67;66.69;76470.88;5102511;27;63700;-70
2023/12/07 08:07:29;;;;;;;;;14.00;13.75;;;;;-146.67;65.91;76450.91;5104429;27;62356;-70
2023/12/07 08:09:55;;;;;;;;;14.00;8.00;;;;;-146.67;65.70;76444.91;5104784;27;61797;-69
2023/12/07 08:12:22;;;;;;;;;15.50;11.50;;;;;-146.67;65.47;76448.91;5103458;27;61925;-74
2023/12/07 08:14:48;;;;;;;;;15.75;11.25;;;;;-146.67;65.87;76436.94;5104400;27;61723;-70
2023/12/07 08:17:14;;;;;;;;;19.25;15.75;;;;;-146.67;65.60;76448.91;5105221;27;62117;-73
2023/12/07 08:19:42;;;;;;;;;14.25;11.00;;;;;-146.67;65.40;76452.91;5113163;27;61775;-72
2023/12/07 08:22:07;;;;;;;;;13.00;13.00;;;;;-146.67;65.49;76446.91;5112220;27;61793;-73
2023/12/07 08:24:33;;;;;;;;;22.00;16.75;;;;;-146.67;66.34;76436.94;5101181;27;64646;-72
2023/12/07 08:26:58;;;;;;;;;17.75;13.75;;;;;-146.67;65.50;76428.94;5103568;27;61965;-71
2023/12/07 08:29:24;;;;;;;;;17.50;14.25;;;;;-146.67;65.18;76422.94;5106478;27;61912;-71
2023/12/07 08:31:49;;;;;;;;;18.75;14.00;;;;;-146.67;65.49;76418.97;5104857;27;61892;-71
2023/12/07 08:34:14;;;;;;;;;18.00;13.00;;;;;-146.67;65.42;76416.97;5100415;27;62844;-73
2023/12/07 08:36:40;;;;;;;;;14.50;12.50;;;;;-146.67;65.02;76400.97;5099209;27;62248;-73
2023/12/07 08:39:09;;;;;;;;;18.75;14.50;;;;;-146.67;64.58;76396.97;5103244;27;61884;-73
2023/12/07 08:41:35;;;;;;;;;16.25;14.00;;;;;-146.67;64.93;76402.97;5104441;27;61746;-73
2023/12/07 08:44:00;;;;;;;;;15.50;14.00;;;;;-146.67;64.44;76393.00;5103703;27;61857;-72
2023/12/07 08:46:26;;;;;;;;;20.00;12.75;;;;;-146.67;63.92;76387.00;5102104;27;61727;-73
2023/12/07 08:48:52;;;;;;;;;19.00;17.00;;;;;-146.67;63.73;76387.00;5102655;27;61753;-73
2023/12/07 08:51:17;;;;;;;;;18.25;16.25;;;;;-146.67;64.07;76383.00;5102822;27;62042;-72
2023/12/07 08:53:42;;;;;;;;;19.50;14.50;;;;;-146.67;63.98;76379.00;5102620;27;64857;-73
2023/12/07 08:56:08;;;;;;;;;19.25;15.25;;;;;-146.67;63.56;76363.03;5104830;27;61901;-73
2023/12/07 08:58:33;;;;;;;;;19.50;14.00;;;;;-146.67;62.49;76347.06;5104185;27;61752;-72
2023/12/07 09:00:59;;;;;;;;;17.00;16.50;;;;;-146.67;62.69;76343.06;5105074;27;61772;-74
2023/12/07 09:03:27;;;;;;;;;15.00;12.25;;;;;-146.67;62.83;76331.06;5102491;27;64527;-73
2023/12/07 09:05:53;;;;;;;;;15.50;12.75;;;;;-146.67;62.69;76347.06;5101847;27;61857;-73
2023/12/07 09:08:18;;;;;;;;;13.75;10.50;;;;;-146.67;63.23;76351.03;5098645;27;61768;-73
2023/12/07 09:10:43;;;;;;;;;15.50;14.25;;;;;-146.67;62.63;76339.06;5104451;27;61874;-72
2023/12/07 09:13:09;;;;;;;;;19.25;14.25;;;;;-146.67;62.89;76329.06;5104213;27;62874;-73
2023/12/07 09:15:37;;;;;;;;;14.50;12.25;;;;;-146.67;61.95;76323.09;5104359;27;61975;-73
2023/12/07 09:18:03;;;;;;;;;11.75;10.75;;;;;-146.67;62.17;76305.09;5105870;27;62887;-72
2023/12/07 09:20:28;;;;;;;;;10.50;10.00;;;;;-146.67;62.32;76285.13;5103247;27;62146;-73
2023/12/07 09:22:55;;;;;;;;;18.00;15.75;;;;;-146.67;62.57;76267.16;5105197;27;61945;-73
2023/12/07 09:25:21;;;;;;;;;16.50;12.25;;;;;-146.67;62.18;76263.16;5103559;27;62039;-73
2023/12/07 09:27:47;;;;;;;;;16.00;12.25;;;;;-146.67;61.93;76255.16;5104441;27;61923;-73
2023/12/07 09:30:13;;;;;;;;;12.75;11.00;;;;;-146.67;61.82;76249.19;5123467;27;61902;-71
2023/12/07 09:32:42;;;;;;;;;19.50;14.25;;;;;-146.67;61.37;76245.19;5122628;27;63714;-71
2023/12/07 09:35:18;;;;;;;;;15.00;10.75;;;;;-146.67;60.76;76245.19;5123108;27;61825;-72
2023/12/07 09:37:44;;;;;;;;;11.25;11.25;;;;;-146.67;60.67;76219.22;5124422;27;61785;-71
2023/12/07 09:40:18;;;;;;;;;10.50;10.50;;;;;-146.67;60.43;76225.22;5107058;27;62197;-72
2023/12/07 09:42:44;;;;;;;;;14.50;11.50;;;;;-146.67;60.38;76213.22;5102481;27;61745;-71
2023/12/07 09:45:10;;;;;;;;;14.75;9.50;;;;;-146.67;60.40;76199.25;5102623;27;61966;-73
2023/12/07 09:47:37;;;;;;;;;11.75;11.75;;;;;-146.67;59.69;76185.25;5103921;27;61932;-73
2023/12/07 09:50:05;;;;;;;;;15.25;9.50;;;;;-146.67;59.21;76189.25;5118441;27;61944;-73
2023/12/07 09:52:31;;;;;;;;;15.00;10.00;;;;;-146.67;59.90;76181.28;5102430;27;61970;-72
2023/12/07 09:54:56;;;;;;;;;16.00;11.00;;;;;-146.67;58.82;76177.28;5101596;27;61960;-73
2023/12/07 09:57:22;;;;;;;;;13.75;11.00;;;;;-146.67;59.95;76161.31;5103308;27;61723;-73
2023/12/07 09:59:49;;;;;;;;;10.75;6.75;;;;;-146.67;59.25;76145.31;5100142;27;62228;-72
2023/12/07 10:02:15;;;;;;;;;16.00;12.75;;;;;-146.67;58.81;76141.31;5103047;27;61840;-73
2023/12/07 10:04:41;;;;;;;;;14.75;11.75;;;;;-146.67;58.53;76131.34;5101012;27;62399;-73
2023/12/07 10:07:08;;;;;;;;;14.50;11.25;;;;;-146.67;58.14;76125.34;5100658;27;61897;-72
2023/12/07 10:09:38;;;;;;;;;16.75;12.50;;;;;-146.67;58.47;76117.34;5101333;27;61835;-72
2023/12/07 10:12:04;;;;;;;;;18.75;15.50;;;;;-146.67;58.06;76107.38;5102450;27;61900;-72
2023/12/07 10:14:30;;;;;;;;;10.75;10.00;;;;;-146.67;57.47;76107.38;5101227;27;61846;-73
2023/12/07 10:16:56;;;;;;;;;17.50;13.00;;;;;-146.67;57.43;76109.38;5102872;27;62065;-72
2023/12/07 10:19:22;;;;;;;;;15.75;10.00;;;;;-146.67;57.25;76109.38;5100769;27;62152;-73
2023/12/07 10:21:49;;;;;;;;;10.50;10.50;;;;;-146.67;57.75;76109.38;5100959;27;61838;-73
2023/12/07 10:24:16;;;;;;;;;13.00;10.25;;;;;-146.67;57.03;76111.38;5101508;27;65089;-72
2023/12/07 10:26:43;;;;;;;;;12.25;10.50;;;;;-146.67;57.07;76111.38;5102346;27;62061;-72
2023/12/07 10:29:09;;;;;;;;;15.75;10.00;;;;;-146.67;56.80;76103.38;5101040;27;61866;-72
2023/12/07 10:31:36;;;;;;;;;11.75;9.00;;;;;-146.67;57.22;76101.38;5096664;27;63980;-72
2023/12/07 10:34:02;;;;;;;;;11.50;10.00;;;;;-146.67;57.21;76099.38;5102024;27;62123;-72
2023/12/07 10:36:27;;;;;;;;;11.75;11.75;;;;;-146.67;57.29;76101.38;5102035;27;61816;-72
2023/12/07 10:38:53;;;;;;;;;13.25;11.25;;;;;-146.67;56.81;76099.38;5102044;27;62094;-72
2023/12/07 10:41:23;;;;;;;;;8.50;8.50;;;;;-146.67;57.07;76093.41;5101714;27;62047;-72
2023/12/07 10:43:52;;;;;;;;;11.00;9.25;;;;;-146.67;56.49;76089.41;5101571;27;61825;-72
2023/12/07 10:46:26;;;;;;;;;11.75;8.75;;;;;-146.67;56.11;76091.41;5101234;27;62232;-72
2023/12/07 10:48:58;;;;;;;;;9.75;9.25;;;;;-146.67;56.16;76095.38;5101571;27;61805;-71
2023/12/07 10:51:31;;;;;;;;;9.75;9.25;;;;;-146.67;56.35;76095.38;5101549;27;61722;-72
2023/12/07 10:53:58;;;;;;;;;10.00;9.00;;;;;-146.67;56.54;76099.38;5100304;27;61903;-72
2023/12/07 10:56:42;;;;;;;;;11.75;9.50;;;;;-146.67;56.09;76093.41;5101818;27;61873;-72